1931 NOT_NAMED (1931289N16131)


IBTrACS version v04r00. Visit IBTrACS website for data access.
Please direct all questions to the IBTrACS Q and A forum

Storm track - Intensity - Wind Radii - Intensity Data - Source Data - All data

Summary Information

Storm ID 1931289N16131
Start Oct 15 22Z
End Oct 20 22Z
ATCF IDs
Track status Best track data.

Storm track plot

Map of storm track

Intensity plots

No Intensity information for this storm


Radial wind information

No radial wind information for this storm


Position and Intensity Table

BASIN ISO_TIME_________ NATURE LAT LON
degrees north degrees east
WP 1931-10-15 22:00:00 NR 15.80 130.80
WP 1931-10-16 00:00:00 NR 15.76 130.59
WP 03:00:00 NR 15.70 130.28
WP 06:00:00 NR 15.65 129.98
WP 09:00:00 NR 15.61 129.69
WP 10:00:00 NR 15.60 129.60
WP 12:00:00 NR 15.59 129.42
WP 15:00:00 NR 15.58 129.17
WP 18:00:00 NR 15.58 128.92
WP 21:00:00 NR 15.59 128.68
WP 22:00:00 NR 15.60 128.60
WP 1931-10-17 00:00:00 NR 15.61 128.43
WP 03:00:00 NR 15.62 128.18
WP 06:00:00 NR 15.65 127.93
WP 09:00:00 NR 15.68 127.68
WP 10:00:00 NR 15.70 127.60
WP 12:00:00 NR 15.73 127.44
WP 15:00:00 NR 15.80 127.21
WP 18:00:00 NR 15.87 126.96
WP 21:00:00 NR 15.97 126.70
WP 22:00:00 NR 16.00 126.60
WP 1931-10-18 00:00:00 NR 16.05 126.39
WP 03:00:00 NR 16.13 126.04
WP 06:00:00 NR 16.25 125.68
WP 09:00:00 NR 16.43 125.32
WP 10:00:00 NR 16.50 125.20
WP 12:00:00 NR 16.67 124.97
WP 15:00:00 NR 16.98 124.64
WP 18:00:00 NR 17.34 124.31
WP 21:00:00 NR 17.76 124.00
WP 22:00:00 NR 17.90 123.90
WP 1931-10-19 00:00:00 NR 18.22 123.74
WP 03:00:00 NR 18.74 123.51
WP 06:00:00 NR 19.25 123.26
WP 09:00:00 NR 19.68 122.93
WP 10:00:00 NR 19.80 122.80
WP 12:00:00 NR 20.00 122.48
WP 15:00:00 NR 20.22 121.92
WP 18:00:00 NR 20.33 121.29
WP 21:00:00 NR 20.33 120.62
WP 22:00:00 NR 20.30 120.40
WP 1931-10-20 00:00:00 NR 20.19 119.98
WP 03:00:00 NR 19.93 119.33
WP 06:00:00 NR 19.63 118.67
WP 09:00:00 NR 19.36 118.02
WP 10:00:00 NR 19.30 117.80
WP 12:00:00 NR 19.22 117.37
WP 15:00:00 NR 19.19 116.71
WP 18:00:00 NR 19.25 116.07
WP 21:00:00 NR 19.36 115.42
WP 22:00:00 NR 19.40 115.20

Source Information

Agency Information
USA
TOKYO
CMA
HKO
NEWDELHI
REUNION
BOM
NADI
WELLINGTON
DS824
TD9636 cons_worldwide_trop_cyclone_18710101-19891231-003:Line=8858
TD9635
NEUMANN
MLC

All available IBTrACS Data

SEASON BASIN SUBBASIN ISO_TIME_________ NATURE LAT LON DIST2LAND LANDFALL IFLAG USA SSHS TD9636 LAT TD9636 LON TD9636 STAGE STORM SPEED STORM DIR
Year degrees north degrees east km km 1 degrees north degrees east kts degrees
1931 WP MM 1931-10-15 22:00:00 NR 15.80 130.80 699 682 __________O___ -1 15.80 130.80 7 6 259
1931 WP MM 1931-10-16 00:00:00 NR 15.76 130.59 682 649 __________P___ -1 15.76 130.59 7 6 259
1931 WP MM 03:00:00 NR 15.70 130.28 649 617 __________P___ -1 15.70 130.28 7 6 259
1931 WP MM 06:00:00 NR 15.65 129.98 617 592 __________P___ -1 15.65 129.98 7 6 261
1931 WP MM 09:00:00 NR 15.61 129.69 592 583 __________P___ -1 15.61 129.69 7 6 262
1931 WP MM 10:00:00 NR 15.60 129.60 583 567 __________O___ -1 15.60 129.60 7 5 265
1931 WP MM 12:00:00 NR 15.59 129.42 567 550 __________P___ -1 15.59 129.42 7 5 267
1931 WP MM 15:00:00 NR 15.58 129.17 550 520 __________P___ -1 15.58 129.17 7 5 269
1931 WP MM 18:00:00 NR 15.58 128.92 520 500 __________P___ -1 15.58 128.92 7 5 272
1931 WP MM 21:00:00 NR 15.59 128.68 500 490 __________P___ -1 15.59 128.68 7 5 273
1931 WP MM 22:00:00 NR 15.60 128.60 490 470 __________O___ -1 15.60 128.60 7 5 273
1931 WP MM 1931-10-17 00:00:00 NR 15.61 128.43 470 450 __________P___ -1 15.61 128.43 7 5 273
1931 WP MM 03:00:00 NR 15.62 128.18 450 421 __________P___ -1 15.62 128.18 7 5 275
1931 WP MM 06:00:00 NR 15.65 127.93 421 408 __________P___ -1 15.65 127.93 7 5 277
1931 WP MM 09:00:00 NR 15.68 127.68 408 398 __________P___ -1 15.68 127.68 7 5 280
1931 WP MM 10:00:00 NR 15.70 127.60 398 380 __________O___ -1 15.70 127.60 7 5 282
1931 WP MM 12:00:00 NR 15.73 127.44 380 368 __________P___ -1 15.73 127.44 7 5 284
1931 WP MM 15:00:00 NR 15.80 127.21 368 351 __________P___ -1 15.80 127.21 7 5 287
1931 WP MM 18:00:00 NR 15.87 126.96 358 333 __________P___ -1 15.87 126.96 7 5 289
1931 WP MM 21:00:00 NR 15.97 126.70 341 333 __________P___ -1 15.97 126.70 7 6 290
1931 WP MM 22:00:00 NR 16.00 126.60 333 317 __________O___ -1 16.00 126.60 3 6 286
1931 WP MM 1931-10-18 00:00:00 NR 16.05 126.39 317 297 __________P___ -1 16.05 126.39 3 7 284
1931 WP MM 03:00:00 NR 16.13 126.04 297 288 __________P___ -1 16.13 126.04 3 7 287
1931 WP MM 06:00:00 NR 16.25 125.68 298 287 __________P___ -1 16.25 125.68 3 8 293
1931 WP MM 09:00:00 NR 16.43 125.32 289 289 __________P___ -1 16.43 125.32 3 8 298
1931 WP MM 10:00:00 NR 16.50 125.20 291 267 __________O___ -1 16.50 125.20 4 8 306
1931 WP MM 12:00:00 NR 16.67 124.97 267 223 __________P___ -1 16.67 124.97 4 9 312
1931 WP MM 15:00:00 NR 16.98 124.64 223 194 __________P___ -1 16.98 124.64 4 9 317
1931 WP MM 18:00:00 NR 17.34 124.31 194 175 __________P___ -1 17.34 124.31 4 10 322
1931 WP MM 21:00:00 NR 17.76 124.00 178 168 __________P___ -1 17.76 124.00 4 10 325
1931 WP MM 22:00:00 NR 17.90 123.90 172 148 __________O___ -1 17.90 123.90 4 11 332
1931 WP MM 1931-10-19 00:00:00 NR 18.22 123.74 148 130 __________P___ -1 18.22 123.74 4 11 336
1931 WP MM 03:00:00 NR 18.74 123.51 130 128 __________P___ -1 18.74 123.51 4 11 336
1931 WP MM 06:00:00 NR 19.25 123.26 138 138 __________P___ -1 19.25 123.26 4 11 330
1931 WP MM 09:00:00 NR 19.68 122.93 158 158 __________P___ -1 19.68 122.93 4 11 322
1931 WP MM 10:00:00 NR 19.80 122.80 165 165 __________O___ -1 19.80 122.80 4 11 307
1931 WP MM 12:00:00 NR 20.00 122.48 180 179 __________P___ -1 20.00 122.48 4 11 297
1931 WP MM 15:00:00 NR 20.22 121.92 197 183 __________P___ -1 20.22 121.92 4 12 286
1931 WP MM 18:00:00 NR 20.33 121.29 183 178 __________P___ -1 20.33 121.29 4 12 275
1931 WP MM 21:00:00 NR 20.33 120.62 179 179 __________P___ -1 20.33 120.62 4 13 268
1931 WP MM 22:00:00 NR 20.30 120.40 181 181 __________O___ -1 20.30 120.40 4 12 257
1931 WP MM 1931-10-20 00:00:00 NR 20.19 119.98 197 197 __________P___ -1 20.19 119.98 4 13 250
1931 WP MM 03:00:00 NR 19.93 119.33 214 214 __________P___ -1 19.93 119.33 4 13 245
1931 WP MM 06:00:00 NR 19.63 118.67 240 249 __________P___ -1 19.63 118.67 4 14 245
1931 WP MM 09:00:00 NR 19.36 118.02 295 295 __________P___ -1 19.36 118.02 4 13 248
1931 WP MM 10:00:00 NR 19.30 117.80 311 311 __________O___ -1 19.30 117.80 4 13 257
1931 WP MM 12:00:00 NR 19.22 117.37 348 358 __________P___ -1 19.22 117.37 4 12 264
1931 WP MM 15:00:00 NR 19.19 116.71 402 378 __________P___ -1 19.19 116.71 4 12 272
1931 WP MM 18:00:00 NR 19.25 116.07 378 343 __________P___ -1 19.25 116.07 4 12 278
1931 WP MM 21:00:00 NR 19.36 115.42 343 337 __________P___ -1 19.36 115.42 4 12 280
1931 WP MM 22:00:00 NR 19.40 115.20 337 __________O___ -1 19.40 115.20 7 13 281